createdAt,value
2022-11-30T00:01:51.530Z,83.89
2022-11-30T00:04:19.552Z,83.96
2022-11-30T00:06:48.788Z,84.16
2022-11-30T00:09:16.694Z,83.57
2022-11-30T00:11:44.637Z,84.39
2022-11-30T00:14:12.539Z,83.73
2022-11-30T00:16:41.065Z,84.26
2022-11-30T00:19:09.028Z,83.42
2022-11-30T00:21:37.409Z,83.46
2022-11-30T00:24:08.083Z,83.44
2022-11-30T00:26:36.546Z,83.86
2022-11-30T00:29:05.115Z,83.48
2022-11-30T00:31:33.495Z,83.52
2022-11-30T00:34:01.456Z,84.65
2022-11-30T00:36:29.539Z,84.44
2022-11-30T00:38:57.586Z,84.88
2022-11-30T00:41:26.950Z,84.33
2022-11-30T00:43:54.877Z,84.34
2022-11-30T00:46:22.724Z,84.29
2022-11-30T00:48:50.651Z,84.10
2022-11-30T00:51:20.340Z,84.55
2022-11-30T00:53:48.728Z,84.16
2022-11-30T00:56:16.999Z,84.60
2022-11-30T00:58:46.323Z,84.77
2022-11-30T01:01:14.321Z,84.75
2022-11-30T01:03:42.687Z,83.95
2022-11-30T01:06:11.713Z,84.72
2022-11-30T01:08:40.027Z,84.17
2022-11-30T01:11:10.459Z,84.56
2022-11-30T01:13:38.514Z,83.87
2022-11-30T01:16:12.603Z,84.04
2022-11-30T01:18:40.572Z,85.03
2022-11-30T01:21:11.089Z,84.30
2022-11-30T01:23:39.026Z,85.01
2022-11-30T01:26:07.567Z,84.42
2022-11-30T01:28:36.354Z,84.82
2022-11-30T01:31:06.178Z,85.01
2022-11-30T01:33:36.125Z,84.21
2022-11-30T01:36:06.564Z,84.96
2022-11-30T01:38:35.720Z,84.31
2022-11-30T01:41:04.735Z,84.69
2022-11-30T01:43:44.210Z,84.17
2022-11-30T01:46:33.449Z,84.40
2022-11-30T01:49:07.814Z,84.20
2022-11-30T01:51:37.285Z,84.03
2022-11-30T01:54:09.666Z,85.03
2022-11-30T01:56:42.833Z,83.85
2022-11-30T01:59:12.052Z,84.82
2022-11-30T02:01:40.081Z,84.50
2022-11-30T02:04:12.815Z,84.61
2022-11-30T02:06:40.981Z,84.30
2022-11-30T02:09:09.413Z,84.22
2022-11-30T02:11:37.434Z,84.97
2022-11-30T02:14:17.002Z,85.18
2022-11-30T02:16:56.739Z,84.61
2022-11-30T02:20:17.369Z,85.03
2022-11-30T02:22:59.335Z,84.55
2022-11-30T02:25:37.694Z,84.72
2022-11-30T02:28:44.650Z,84.89
2022-11-30T02:31:17.932Z,84.39
2022-11-30T02:33:48.653Z,85.18
2022-11-30T02:36:17.927Z,84.54
2022-11-30T02:38:45.977Z,84.95
2022-11-30T02:41:14.293Z,85.26
2022-11-30T02:43:43.664Z,84.82
2022-11-30T02:46:20.237Z,85.38
2022-11-30T02:48:54.391Z,84.88
2022-11-30T02:51:26.260Z,84.96
2022-11-30T02:53:55.638Z,84.76
2022-11-30T02:56:24.518Z,85.69
2022-11-30T02:58:53.881Z,85.23
2022-11-30T03:01:22.209Z,85.11
2022-11-30T03:03:50.227Z,84.69
2022-11-30T03:06:18.334Z,85.04
2022-11-30T03:08:46.168Z,85.23
2022-11-30T03:11:14.094Z,84.82
2022-11-30T03:13:42.172Z,85.98
2022-11-30T03:16:13.904Z,86.13
2022-11-30T03:18:42.268Z,85.32
2022-11-30T03:21:12.161Z,85.26
2022-11-30T03:23:41.127Z,85.97
2022-11-30T03:26:10.408Z,85.07
2022-11-30T03:28:38.580Z,85.65
2022-11-30T03:31:07.140Z,85.39
2022-11-30T03:33:36.582Z,85.07
2022-11-30T03:36:06.971Z,85.06
2022-11-30T03:38:35.270Z,85.54
2022-11-30T03:41:04.867Z,84.86
2022-11-30T03:43:32.697Z,84.82
2022-11-30T03:46:01.352Z,84.97
2022-11-30T03:48:29.441Z,85.42
2022-11-30T03:50:58.911Z,84.96
2022-11-30T03:53:27.021Z,85.45
2022-11-30T03:55:56.569Z,84.90
2022-11-30T03:58:25.775Z,85.11
2022-11-30T04:01:00.368Z,84.92
2022-11-30T04:03:28.013Z,84.96
2022-11-30T04:05:55.930Z,85.13
2022-11-30T04:08:25.296Z,84.66
2022-11-30T04:10:54.013Z,85.46
2022-11-30T04:13:23.113Z,84.54
2022-11-30T04:15:52.751Z,85.13
2022-11-30T04:18:22.158Z,84.79
2022-11-30T04:20:51.845Z,85.13
2022-11-30T04:23:20.618Z,84.93
2022-11-30T04:25:50.284Z,84.81
2022-11-30T04:28:19.284Z,85.71
2022-11-30T04:30:47.409Z,85.26
2022-11-30T04:33:17.494Z,85.00
2022-11-30T04:35:48.517Z,85.73
2022-11-30T04:38:16.715Z,85.62
2022-11-30T04:40:45.623Z,85.57
2022-11-30T04:43:15.321Z,85.31
2022-11-30T04:45:45.066Z,85.64
2022-11-30T04:48:13.079Z,85.02
2022-11-30T04:50:41.064Z,85.04
2022-11-30T04:53:09.648Z,85.51
2022-11-30T04:55:38.145Z,86.19
2022-11-30T04:58:05.931Z,85.24
2022-11-30T05:00:36.387Z,85.56
2022-11-30T05:03:04.920Z,86.19
2022-11-30T05:05:32.775Z,86.06
2022-11-30T05:08:01.080Z,86.24
2022-11-30T05:10:30.545Z,86.08
2022-11-30T05:12:58.651Z,85.76
2022-11-30T05:15:27.338Z,85.62
2022-11-30T05:17:59.832Z,86.60
2022-11-30T05:20:27.810Z,86.40
2022-11-30T05:22:55.827Z,86.12
2022-11-30T05:25:23.788Z,86.09
2022-11-30T05:27:51.691Z,86.72
2022-11-30T05:30:20.025Z,86.41
2022-11-30T05:32:48.275Z,86.81
2022-11-30T05:35:18.062Z,86.95
2022-11-30T05:37:46.569Z,87.07
2022-11-30T05:40:17.982Z,86.89
2022-11-30T05:42:45.898Z,86.37
2022-11-30T05:45:13.762Z,86.37
2022-11-30T05:47:43.275Z,85.80
2022-11-30T05:50:11.272Z,85.99
2022-11-30T05:52:40.509Z,85.74
2022-11-30T05:55:08.996Z,86.74
2022-11-30T05:57:37.649Z,86.28
2022-11-30T06:00:06.669Z,86.40
2022-11-30T06:02:39.521Z,86.46
2022-11-30T06:05:08.433Z,86.66
2022-11-30T06:07:38.474Z,85.80
2022-11-30T06:10:09.163Z,85.37
2022-11-30T06:12:36.904Z,85.89
2022-11-30T06:15:05.478Z,85.74
2022-11-30T06:17:33.430Z,85.12
2022-11-30T06:20:01.429Z,85.52
2022-11-30T06:22:29.473Z,85.11
2022-11-30T06:24:57.264Z,85.72
2022-11-30T06:27:26.677Z,84.84
2022-11-30T06:29:54.891Z,85.96
2022-11-30T06:32:22.761Z,86.01
2022-11-30T06:34:50.482Z,85.68
2022-11-30T06:37:18.326Z,85.39
2022-11-30T06:42:37.408Z,85.33
2022-11-30T06:45:07.084Z,86.34
2022-11-30T06:47:34.976Z,86.01
2022-11-30T06:50:03.224Z,85.46
2022-11-30T06:52:31.628Z,85.99
2022-11-30T06:54:59.623Z,85.78
2022-11-30T06:57:28.473Z,86.17
2022-11-30T06:59:58.121Z,85.83
2022-11-30T07:02:26.061Z,85.37
2022-11-30T07:04:54.093Z,86.12
2022-11-30T07:07:22.200Z,85.35
2022-11-30T07:09:50.810Z,85.47
2022-11-30T07:12:18.820Z,85.71
2022-11-30T07:14:47.070Z,85.59
2022-11-30T07:17:16.458Z,85.81
2022-11-30T07:19:44.235Z,85.37
2022-11-30T07:22:12.020Z,85.98
2022-11-30T07:24:57.194Z,86.18
2022-11-30T07:27:25.451Z,85.29
2022-11-30T07:29:53.717Z,85.52
2022-11-30T07:32:23.060Z,85.29
2022-11-30T07:34:50.973Z,86.00
2022-11-30T07:37:19.459Z,85.78
2022-11-30T07:39:47.411Z,86.35
2022-11-30T07:42:16.987Z,85.34
2022-11-30T07:44:45.080Z,85.73
2022-11-30T07:47:13.139Z,85.37
2022-11-30T07:49:42.281Z,86.28
2022-11-30T07:52:10.129Z,86.01
2022-11-30T07:54:37.880Z,86.62
2022-11-30T07:57:06.413Z,86.75
2022-11-30T07:59:34.359Z,86.34
2022-11-30T08:02:02.324Z,86.42
2022-11-30T08:04:30.231Z,86.31
2022-11-30T08:06:59.422Z,86.44
2022-11-30T08:09:27.256Z,86.04
2022-11-30T08:11:55.068Z,86.00
2022-11-30T08:14:22.810Z,87.11
2022-11-30T08:16:51.858Z,86.85
2022-11-30T08:19:20.057Z,85.98
2022-11-30T08:21:47.914Z,85.52
2022-11-30T08:24:17.309Z,86.11
2022-11-30T08:26:45.463Z,85.51
2022-11-30T08:29:13.406Z,85.23
2022-11-30T08:31:41.179Z,85.97
2022-11-30T08:34:12.817Z,86.06
2022-11-30T08:36:41.729Z,85.91
2022-11-30T08:39:12.343Z,85.83
2022-11-30T08:41:41.587Z,85.83
2022-11-30T08:44:09.795Z,84.81
2022-11-30T08:46:53.915Z,85.06
2022-11-30T08:49:23.911Z,85.65
2022-11-30T08:54:45.523Z,85.10
2022-11-30T08:57:15.212Z,85.92
2022-11-30T08:59:43.043Z,85.91
2022-11-30T09:02:12.259Z,85.01
2022-11-30T09:04:40.365Z,85.90
2022-11-30T09:07:09.493Z,85.73
2022-11-30T09:09:37.767Z,85.77
2022-11-30T09:12:05.917Z,85.17
2022-11-30T09:14:35.393Z,85.11
2022-11-30T09:17:03.319Z,85.73
2022-11-30T09:19:31.270Z,85.95
2022-11-30T09:21:59.200Z,85.60
2022-11-30T09:24:26.933Z,85.31
2022-11-30T09:26:57.569Z,85.19
2022-11-30T09:29:25.485Z,85.20
2022-11-30T09:31:54.676Z,85.42
2022-11-30T09:34:22.729Z,85.72
2022-11-30T09:36:50.490Z,85.33
2022-11-30T09:39:18.279Z,85.28
2022-11-30T09:42:04.418Z,84.84
2022-11-30T09:44:45.161Z,85.33
2022-11-30T09:47:36.040Z,85.93
2022-11-30T09:50:11.639Z,85.56
2022-11-30T09:52:44.227Z,86.07
2022-11-30T09:55:18.685Z,85.88
2022-11-30T09:57:48.380Z,85.96
2022-11-30T10:00:19.132Z,85.95
2022-11-30T10:02:50.555Z,86.13
2022-11-30T10:05:21.597Z,85.49
2022-11-30T10:08:12.178Z,85.82
2022-11-30T10:10:42.081Z,85.97
2022-11-30T10:13:39.290Z,85.60
2022-11-30T10:16:18.201Z,85.61
2022-11-30T10:19:00.218Z,86.04
2022-11-30T10:21:40.968Z,86.01
2022-11-30T10:24:23.288Z,85.39
2022-11-30T10:26:55.614Z,86.10
2022-11-30T10:29:31.467Z,86.14
2022-11-30T10:32:01.213Z,85.30
2022-11-30T10:34:35.642Z,85.48
2022-11-30T10:37:11.106Z,85.62
2022-11-30T10:39:44.826Z,85.64
2022-11-30T10:42:17.422Z,86.06
2022-11-30T10:44:54.082Z,85.85
2022-11-30T10:47:27.178Z,86.22
2022-11-30T10:49:56.358Z,85.55
2022-11-30T10:52:27.285Z,86.00
2022-11-30T10:55:04.295Z,85.92
2022-11-30T10:57:34.114Z,86.28
2022-11-30T11:00:06.630Z,85.98
2022-11-30T11:02:41.618Z,86.09
2022-11-30T11:05:22.773Z,86.87
2022-11-30T11:07:55.233Z,86.59
2022-11-30T11:10:29.356Z,86.90
2022-11-30T11:12:57.727Z,87.79
2022-11-30T11:15:27.270Z,88.10
2022-11-30T11:18:12.532Z,87.32
2022-11-30T11:20:43.361Z,87.31
2022-11-30T11:23:23.755Z,87.34
2022-11-30T11:25:53.227Z,87.12
2022-11-30T11:28:22.961Z,86.26
2022-11-30T11:30:53.844Z,86.44
2022-11-30T11:33:24.512Z,86.63
2022-11-30T11:35:56.165Z,86.73
2022-11-30T11:38:28.253Z,86.57
2022-11-30T11:40:58.790Z,86.35
2022-11-30T11:43:29.214Z,87.02
2022-11-30T11:46:02.071Z,86.43
2022-11-30T11:48:39.310Z,86.49
2022-11-30T11:51:11.070Z,86.39
2022-11-30T11:53:50.050Z,87.50
2022-11-30T11:56:26.468Z,87.41
2022-11-30T11:58:59.775Z,87.41
2022-11-30T12:01:50.211Z,87.44
2022-11-30T12:04:33.112Z,86.90
2022-11-30T12:07:12.570Z,87.70
2022-11-30T12:09:55.359Z,87.01
2022-11-30T12:12:23.221Z,87.42
2022-11-30T12:14:51.090Z,86.93
2022-11-30T12:17:40.293Z,87.47
2022-11-30T12:20:23.660Z,87.20
2022-11-30T12:23:09.807Z,86.84
2022-11-30T12:25:41.829Z,86.89
2022-11-30T12:28:21.891Z,86.94
2022-11-30T12:31:04.712Z,86.95
2022-11-30T12:33:47.522Z,85.96
2022-11-30T12:36:25.577Z,86.70
2022-11-30T12:39:01.103Z,86.58
2022-11-30T12:41:37.499Z,86.80
2022-11-30T12:44:41.779Z,87.59
2022-11-30T12:47:26.714Z,86.91
2022-11-30T12:50:09.993Z,87.59
2022-11-30T12:52:49.599Z,87.46
2022-11-30T12:55:31.630Z,87.70
2022-11-30T12:58:09.079Z,87.97
2022-11-30T13:00:46.873Z,87.52
2022-11-30T13:03:42.644Z,86.74
2022-11-30T13:06:15.646Z,86.62
2022-11-30T13:08:58.149Z,87.09
2022-11-30T13:11:33.235Z,86.89
2022-11-30T13:14:01.967Z,87.53
2022-11-30T13:16:32.489Z,87.53
2022-11-30T13:19:09.439Z,87.18
2022-11-30T13:21:43.053Z,87.16
2022-11-30T13:24:17.619Z,85.91
2022-11-30T13:26:53.029Z,86.18
2022-11-30T13:29:37.054Z,86.24
2022-11-30T13:32:27.534Z,86.57
2022-11-30T13:35:46.429Z,86.92
2022-11-30T13:38:36.406Z,87.27
2022-11-30T13:41:07.118Z,87.58
2022-11-30T13:43:41.785Z,87.25
2022-11-30T13:46:16.619Z,87.99
2022-11-30T13:48:46.039Z,88.49
2022-11-30T13:51:15.046Z,87.83
2022-11-30T13:53:43.186Z,86.99
2022-11-30T13:56:35.387Z,88.15
2022-11-30T13:59:41.350Z,87.78
2022-11-30T14:02:59.128Z,88.57
2022-11-30T14:05:38.113Z,87.65
2022-11-30T14:08:32.634Z,87.47
2022-11-30T14:11:34.121Z,87.27
2022-11-30T14:14:38.447Z,88.00
2022-11-30T14:17:19.590Z,87.27
2022-11-30T14:19:51.803Z,86.71
2022-11-30T14:22:20.166Z,87.63
2022-11-30T14:24:49.905Z,87.68
2022-11-30T14:27:22.646Z,87.91
2022-11-30T14:29:53.769Z,87.15
2022-11-30T14:32:34.972Z,88.00
2022-11-30T14:35:09.317Z,87.73
2022-11-30T14:37:41.206Z,87.54
2022-11-30T14:40:11.962Z,87.27
2022-11-30T14:42:49.313Z,87.40
2022-11-30T14:45:20.924Z,87.37
2022-11-30T14:47:52.578Z,86.68
2022-11-30T14:50:24.281Z,86.89
2022-11-30T14:53:17.856Z,86.62
2022-11-30T14:55:51.728Z,87.25
2022-11-30T14:58:29.708Z,87.03
2022-11-30T15:00:59.412Z,87.07
2022-11-30T15:03:34.616Z,86.99
2022-11-30T15:06:06.837Z,87.07
2022-11-30T15:08:38.232Z,86.89
2022-11-30T15:11:08.383Z,88.05
2022-11-30T15:13:40.536Z,88.24
2022-11-30T15:16:17.751Z,87.42
2022-11-30T15:18:47.702Z,87.49
2022-11-30T15:21:19.953Z,87.32
2022-11-30T15:23:51.223Z,87.85
2022-11-30T15:26:23.785Z,87.82
2022-11-30T15:28:57.523Z,88.41
2022-11-30T15:31:26.924Z,88.14
2022-11-30T15:33:56.222Z,88.17
2022-11-30T15:36:32.841Z,87.45
2022-11-30T15:39:04.713Z,87.91
2022-11-30T15:41:34.386Z,88.42
2022-11-30T15:44:03.140Z,87.91
2022-11-30T15:46:34.840Z,87.99
2022-11-30T15:49:18.190Z,88.37
2022-11-30T15:51:54.507Z,88.17
2022-11-30T15:54:47.558Z,88.25
2022-11-30T15:57:15.937Z,88.36
2022-11-30T15:59:44.362Z,88.77
2022-11-30T16:02:27.892Z,88.88
2022-11-30T16:05:23.932Z,88.46
2022-11-30T16:07:55.470Z,89.29
2022-11-30T16:10:25.791Z,88.35
2022-11-30T16:12:55.553Z,88.45
2022-11-30T16:15:26.022Z,88.20
2022-11-30T16:17:57.032Z,88.28
2022-11-30T16:20:26.380Z,88.60
2022-11-30T16:22:54.241Z,88.55
2022-11-30T16:25:24.904Z,88.36
2022-11-30T16:27:53.238Z,88.13
2022-11-30T16:30:23.301Z,88.84
2022-11-30T16:32:51.644Z,88.92
2022-11-30T16:35:23.201Z,89.30
2022-11-30T16:37:53.022Z,89.59
2022-11-30T16:40:21.346Z,89.22
2022-11-30T16:42:50.644Z,88.14
2022-11-30T16:45:21.293Z,88.80
2022-11-30T16:47:49.361Z,87.93
2022-11-30T16:50:17.768Z,88.74
2022-11-30T16:52:46.086Z,87.72
2022-11-30T16:55:16.716Z,87.66
2022-11-30T16:57:45.634Z,88.17
2022-11-30T17:00:16.654Z,88.54
2022-11-30T17:02:49.608Z,88.48
2022-11-30T17:05:17.790Z,88.00
2022-11-30T17:07:45.734Z,88.67
2022-11-30T17:10:15.172Z,88.43
2022-11-30T17:12:43.054Z,89.07
2022-11-30T17:15:15.628Z,88.98
2022-11-30T17:17:43.782Z,89.17
2022-11-30T17:20:13.032Z,89.05
2022-11-30T17:22:41.244Z,88.29
2022-11-30T17:25:14.082Z,88.48
2022-11-30T17:27:43.634Z,89.30
2022-11-30T17:30:12.636Z,88.67
2022-11-30T17:32:40.587Z,89.14
2022-11-30T17:35:09.310Z,88.96
2022-11-30T17:37:37.231Z,88.98
2022-11-30T17:40:07.024Z,89.11
2022-11-30T17:42:35.370Z,89.47
2022-11-30T17:45:05.121Z,88.54
2022-11-30T17:47:33.133Z,88.64
2022-11-30T17:50:01.337Z,88.88
2022-11-30T17:52:29.179Z,89.01
2022-11-30T17:54:57.008Z,88.81
2022-11-30T17:57:24.868Z,89.58
2022-11-30T17:59:52.696Z,88.97
2022-11-30T18:02:21.946Z,89.19
2022-11-30T18:04:50.563Z,89.90
2022-11-30T18:07:20.039Z,89.39
2022-11-30T18:09:49.411Z,89.41
2022-11-30T18:12:17.264Z,89.16
2022-11-30T18:14:46.279Z,90.54
2022-11-30T18:17:14.492Z,89.87
2022-11-30T18:19:43.730Z,89.59
2022-11-30T18:22:11.518Z,90.07
2022-11-30T18:24:39.390Z,89.37
2022-11-30T18:27:07.188Z,89.58
2022-11-30T18:29:34.972Z,89.20
2022-11-30T18:32:02.837Z,89.24
2022-11-30T18:34:30.580Z,89.21
2022-11-30T18:37:04.101Z,89.83
2022-11-30T18:39:32.017Z,89.03
2022-11-30T18:41:59.865Z,89.72
2022-11-30T18:44:27.620Z,89.43
2022-11-30T18:46:55.455Z,89.85
2022-11-30T18:49:23.711Z,89.84
2022-11-30T18:51:51.517Z,89.88
2022-11-30T18:54:20.759Z,90.08
2022-11-30T18:56:48.493Z,90.26
2022-11-30T18:59:16.616Z,89.96
2022-11-30T19:01:44.472Z,90.27
2022-11-30T19:04:12.694Z,89.37
2022-11-30T19:06:42.718Z,89.79
2022-11-30T19:09:13.595Z,89.58
2022-11-30T19:11:44.055Z,90.13
2022-11-30T19:14:14.503Z,89.31
2022-11-30T19:16:42.748Z,89.53
2022-11-30T19:19:13.845Z,90.71
2022-11-30T19:21:43.714Z,90.43
2022-11-30T19:24:11.573Z,90.07
2022-11-30T19:26:40.158Z,89.91
2022-11-30T19:29:11.730Z,89.69
2022-11-30T19:31:39.679Z,89.33
2022-11-30T19:34:12.634Z,90.27
2022-11-30T19:36:41.633Z,89.64
2022-11-30T19:39:11.581Z,89.14
2022-11-30T19:41:39.367Z,89.94
2022-11-30T19:44:07.272Z,89.77
2022-11-30T19:46:36.557Z,89.91
2022-11-30T19:49:04.650Z,89.79
2022-11-30T19:51:32.828Z,89.53
2022-11-30T19:54:01.894Z,89.27
2022-11-30T19:56:31.210Z,89.93
2022-11-30T19:59:04.692Z,89.70
2022-11-30T20:01:34.053Z,90.23
2022-11-30T20:04:04.152Z,89.91
2022-11-30T20:06:35.692Z,89.95
2022-11-30T20:09:04.242Z,89.28
2022-11-30T20:11:32.735Z,89.53
2022-11-30T20:14:00.786Z,89.88
2022-11-30T20:16:29.361Z,89.63
2022-11-30T20:19:00.610Z,89.79
2022-11-30T20:21:32.228Z,89.69
2022-11-30T20:24:02.039Z,89.13
2022-11-30T20:26:31.696Z,89.40
2022-11-30T20:29:01.404Z,90.20
2022-11-30T20:31:30.248Z,89.69
2022-11-30T20:33:58.189Z,89.97
2022-11-30T20:36:26.122Z,89.67
2022-11-30T20:38:55.741Z,89.94
2022-11-30T20:41:25.522Z,90.07
2022-11-30T20:43:54.100Z,90.30
2022-11-30T20:46:23.686Z,89.98
2022-11-30T20:48:52.909Z,90.28
2022-11-30T20:51:30.862Z,90.02
2022-11-30T20:54:02.544Z,90.48
2022-11-30T20:56:30.393Z,89.67
2022-11-30T20:59:01.746Z,90.06
2022-11-30T21:01:29.814Z,89.68
2022-11-30T21:03:59.449Z,89.77
2022-11-30T21:06:27.543Z,90.14
2022-11-30T21:08:55.332Z,89.22
2022-11-30T21:11:24.763Z,89.67
2022-11-30T21:13:52.731Z,90.07
2022-11-30T21:16:27.649Z,89.92
2022-11-30T21:18:57.899Z,89.70
2022-11-30T21:21:27.331Z,89.81
2022-11-30T21:23:55.336Z,89.11
2022-11-30T21:26:26.466Z,89.22
2022-11-30T21:28:56.720Z,89.86
2022-11-30T21:31:24.813Z,89.29
2022-11-30T21:33:53.943Z,89.13
2022-11-30T21:36:23.561Z,89.64
2022-11-30T21:39:01.056Z,89.45
2022-11-30T21:41:34.642Z,89.23
2022-11-30T21:44:03.149Z,89.71
2022-11-30T21:46:31.165Z,89.84
2022-11-30T21:48:59.277Z,89.72
2022-11-30T21:51:29.042Z,88.92
2022-11-30T21:53:58.794Z,88.90
2022-11-30T21:56:28.543Z,89.06
2022-11-30T21:58:58.472Z,89.38
2022-11-30T22:01:29.145Z,89.17
2022-11-30T22:03:58.960Z,88.66
2022-11-30T22:06:29.746Z,89.26
2022-11-30T22:09:03.329Z,88.72
2022-11-30T22:11:32.095Z,88.54
2022-11-30T22:14:01.569Z,88.84
2022-11-30T22:16:35.665Z,88.52
2022-11-30T22:19:04.764Z,88.34
2022-11-30T22:21:33.348Z,89.21
2022-11-30T22:24:03.339Z,89.04
2022-11-30T22:26:32.398Z,88.29
2022-11-30T22:29:03.447Z,88.16
2022-11-30T22:31:33.403Z,89.07
2022-11-30T22:34:01.563Z,89.03
2022-11-30T22:36:30.927Z,88.52
2022-11-30T22:39:00.600Z,88.93
2022-11-30T22:41:29.569Z,88.72
2022-11-30T22:43:58.075Z,88.39
2022-11-30T22:46:29.100Z,88.05
2022-11-30T22:48:59.402Z,88.79
2022-11-30T22:51:29.345Z,88.84
2022-11-30T22:53:57.845Z,88.52
2022-11-30T22:56:28.558Z,88.69
2022-11-30T22:58:58.920Z,88.24
2022-11-30T23:01:30.449Z,88.07
2022-11-30T23:04:03.168Z,88.08
2022-11-30T23:06:31.109Z,88.76
2022-11-30T23:08:59.437Z,88.68
2022-11-30T23:11:28.270Z,88.31
2022-11-30T23:13:56.366Z,89.26
2022-11-30T23:16:24.316Z,88.34
2022-11-30T23:18:57.019Z,88.75
2022-11-30T23:21:26.749Z,88.47
2022-11-30T23:23:57.876Z,88.04
2022-11-30T23:26:27.956Z,88.08
2022-11-30T23:28:59.142Z,88.70
2022-11-30T23:31:33.751Z,88.88
2022-11-30T23:34:06.027Z,88.43
2022-11-30T23:36:34.628Z,88.53
2022-11-30T23:39:05.224Z,88.30
2022-11-30T23:41:34.067Z,88.85
2022-11-30T23:44:02.377Z,88.25
2022-11-30T23:46:30.307Z,88.38
2022-11-30T23:48:58.418Z,88.98
2022-11-30T23:51:28.112Z,88.06
2022-11-30T23:53:56.456Z,88.75
2022-11-30T23:56:24.821Z,88.03
2022-11-30T23:58:53.242Z,88.11
